Time;durP1;ratioP1;P1;durP2;ratioP2;P2;SDS_P1;SDS_P2;PMS_P1;PMS_P2;Temp;Humidity;BMP_temperature;BMP_pressure;BME280_temperature;BME280_humidity;BME280_pressure;Samples;Min_cycle;Max_cycle;Signal;HPM_P1;HPM_P2
2022/03/21 00:02:14;;;;;;;;;;;;;;;21.21;36.05;102772.69;5053616;28;19927;-78
2022/03/21 00:04:39;;;;;;;;;;;;;;;21.21;36.15;102767.19;5069771;28;19935;-77
2022/03/21 00:07:05;;;;;;;;;;;;;;;21.20;36.13;102771.03;5053745;28;20316;-78
2022/03/21 00:09:30;;;;;;;;;;;;;;;21.21;36.27;102777.34;5053636;28;19917;-78
2022/03/21 00:11:55;;;;;;;;;;;;;;;21.19;35.97;102774.88;5054085;28;20409;-78
2022/03/21 00:14:20;;;;;;;;;;;;;;;21.19;35.97;102777.63;5053604;28;19939;-78
2022/03/21 00:16:46;;;;;;;;;;;;;;;21.18;36.10;102774.03;5053427;28;19920;-77
2022/03/21 00:19:11;;;;;;;;;;;;;;;21.17;35.87;102777.91;5068877;28;19996;-78
2022/03/21 00:21:37;;;;;;;;;;;;;;;21.17;35.85;102786.13;5035779;28;19975;-78
2022/03/21 00:24:02;;;;;;;;;;;;;;;21.16;36.27;102783.66;5054115;28;19928;-78
2022/03/21 00:26:27;;;;;;;;;;;;;;;21.16;36.12;102778.16;5069288;28;19932;-78
2022/03/21 00:28:52;;;;;;;;;;;;;;;21.15;35.93;102790.25;5053589;28;20264;-78
2022/03/21 00:31:18;;;;;;;;;;;;;;;21.14;36.08;102775.69;5035731;28;19986;-78
2022/03/21 00:33:43;;;;;;;;;;;;;;;21.13;35.85;102779.50;5053675;28;20354;-78
2022/03/21 00:36:08;;;;;;;;;;;;;;;21.12;36.11;102780.63;5035561;28;19954;-78
2022/03/21 00:38:37;;;;;;;;;;;;;;;21.13;35.83;102784.19;5053499;28;19927;-78
2022/03/21 00:41:04;;;;;;;;;;;;;;;21.12;36.01;102785.28;5057202;28;19964;-77
2022/03/21 00:43:30;;;;;;;;;;;;;;;21.12;35.99;102786.09;5057659;28;19917;-79
2022/03/21 00:45:57;;;;;;;;;;;;;;;21.10;36.04;102782.78;5055946;28;20280;-77
2022/03/21 00:48:23;;;;;;;;;;;;;;;21.10;35.84;102782.78;5039079;28;19917;-78
2022/03/21 00:50:48;;;;;;;;;;;;;;;21.09;35.78;102780.28;5057049;28;19987;-78
2022/03/21 00:53:15;;;;;;;;;;;;;;;21.09;35.83;102786.66;5057892;28;19917;-77
2022/03/21 00:55:41;;;;;;;;;;;;;;;21.08;36.02;102784.97;5058149;28;20391;-77
2022/03/21 00:58:06;;;;;;;;;;;;;;;21.07;35.97;102782.50;5057424;28;20018;-78
2022/03/21 01:00:31;;;;;;;;;;;;;;;21.07;35.79;102785.25;5056990;28;19950;-78
2022/03/21 01:02:59;;;;;;;;;;;;;;;21.06;35.74;102787.16;5056902;28;19962;-78
2022/03/21 01:05:24;;;;;;;;;;;;;;;21.06;35.74;102797.31;5056825;28;19916;-78
2022/03/21 01:07:50;;;;;;;;;;;;;;;21.05;35.86;102793.75;5056958;28;19940;-78
2022/03/21 01:10:18;;;;;;;;;;;;;;;21.05;35.99;102802.00;5038883;28;19938;-78
2022/03/21 01:12:43;;;;;;;;;;;;;;;21.04;35.55;102802.25;5056767;28;19950;-78
2022/03/21 01:15:09;;;;;;;;;;;;;;;21.03;35.71;102798.66;5039418;28;19994;-78
2022/03/21 01:17:35;;;;;;;;;;;;;;;21.02;35.73;102801.69;5038735;28;19943;-78
2022/03/21 01:20:00;;;;;;;;;;;;;;;21.01;35.54;102803.59;5056756;28;19924;-77
2022/03/21 01:22:25;;;;;;;;;;;;;;;21.02;35.94;102804.44;5056531;28;20338;-78
2022/03/21 01:24:50;;;;;;;;;;;;;;;21.01;35.60;102808.25;5056612;28;19970;-78
2022/03/21 01:27:16;;;;;;;;;;;;;;;21.00;35.90;102804.69;5056936;28;19932;-78
2022/03/21 01:29:41;;;;;;;;;;;;;;;20.99;35.49;102807.69;5038977;28;20418;-78
2022/03/21 01:32:07;;;;;;;;;;;;;;;20.98;35.59;102806.06;5072161;28;19951;-78
2022/03/21 01:34:32;;;;;;;;;;;;;;;20.96;35.80;102807.16;5057193;28;20381;-78
2022/03/21 01:36:57;;;;;;;;;;;;;;;20.96;35.73;102804.41;5071856;28;19970;-79
2022/03/21 01:39:23;;;;;;;;;;;;;;;20.95;35.72;102804.66;5038445;28;19935;-78
2022/03/21 01:41:49;;;;;;;;;;;;;;;20.94;35.73;102812.09;5054950;28;20360;-78
2022/03/21 01:44:14;;;;;;;;;;;;;;;20.93;35.76;102813.16;5056491;28;19979;-78
2022/03/21 01:46:41;;;;;;;;;;;;;;;20.93;35.62;102806.84;5056347;28;20452;-78
2022/03/21 01:49:07;;;;;;;;;;;;;;;20.92;35.76;102808.75;5039136;28;19931;-78
2022/03/21 01:51:35;;;;;;;;;;;;;;;20.92;35.69;102813.44;5055339;28;19943;-77
2022/03/21 01:56:45;;;;;;;;;;;;;;;20.89;35.72;102805.69;5057020;28;19997;-77
2022/03/21 01:59:10;;;;;;;;;;;;;;;20.89;35.46;102805.69;5038162;28;19917;-78
2022/03/21 02:01:36;;;;;;;;;;;;;;;20.87;35.66;102805.97;5055701;28;19924;-78
2022/03/21 02:04:02;;;;;;;;;;;;;;;20.87;35.73;102805.97;5056038;28;19917;-77
2022/03/21 02:06:28;;;;;;;;;;;;;;;20.85;35.47;102805.41;5056018;28;20395;-78
2022/03/21 02:08:57;;;;;;;;;;;;;;;20.86;35.79;102809.78;5056410;28;19953;-77
2022/03/21 02:11:22;;;;;;;;;;;;;;;20.85;35.70;102807.31;5071906;28;19974;-78
2022/03/21 02:13:48;;;;;;;;;;;;;;;20.85;35.66;102821.06;5070969;28;20380;-78
2022/03/21 02:16:13;;;;;;;;;;;;;;;20.84;35.74;102816.63;5056443;28;19921;-78
2022/03/21 02:18:41;;;;;;;;;;;;;;;20.82;35.54;102808.69;5038119;28;19962;-77
2022/03/21 02:21:10;;;;;;;;;;;;;;;20.82;35.46;102810.59;5038247;28;19923;-77
2022/03/21 02:23:41;;;;;;;;;;;;;;;20.81;35.73;102809.75;5056281;28;19920;-78
2022/03/21 02:26:10;;;;;;;;;;;;;;;20.81;35.57;102808.94;5037892;28;20035;-78
2022/03/21 02:28:36;;;;;;;;;;;;;;;20.80;35.70;102815.53;5055404;28;20008;-77
2022/03/21 02:31:02;;;;;;;;;;;;;;;20.79;35.16;102809.22;5055928;28;19960;-78
2022/03/21 02:33:28;;;;;;;;;;;;;;;20.78;35.63;102810.28;5055406;28;19993;-78
2022/03/21 02:35:54;;;;;;;;;;;;;;;20.78;35.81;102815.78;5055292;28;19934;-78
2022/03/21 02:38:20;;;;;;;;;;;;;;;20.78;35.41;102814.94;5055583;28;19916;-78
2022/03/21 02:40:45;;;;;;;;;;;;;;;20.76;35.40;102806.97;5055263;28;19917;-78
2022/03/21 02:43:10;;;;;;;;;;;;;;;20.76;35.62;102809.72;5055659;28;19967;-77
2022/03/21 02:45:36;;;;;;;;;;;;;;;20.74;35.59;102806.41;5055100;28;20019;-78
2022/03/21 02:48:01;;;;;;;;;;;;;;;20.75;35.63;102819.03;5070176;28;20314;-77
2022/03/21 02:50:32;;;;;;;;;;;;;;;20.74;35.53;102806.41;5054601;28;20031;-78
2022/03/21 02:52:58;;;;;;;;;;;;;;;20.73;35.40;102811.06;5037779;28;20363;-78
2022/03/21 02:55:23;;;;;;;;;;;;;;;20.72;35.60;102809.41;5055040;28;19917;-78
2022/03/21 02:57:48;;;;;;;;;;;;;;;20.72;35.49;102809.41;5055418;28;19951;-77
2022/03/21 03:00:14;;;;;;;;;;;;;;;20.72;35.57;102812.16;5070637;28;19998;-78
2022/03/21 03:02:39;;;;;;;;;;;;;;;20.71;35.33;102816.00;5054315;28;20331;-78
2022/03/21 03:05:04;;;;;;;;;;;;;;;20.71;35.40;102824.25;5036853;28;19942;-78
2022/03/21 03:07:30;;;;;;;;;;;;;;;20.70;35.64;102817.06;5054378;28;20295;-77
2022/03/21 03:09:55;;;;;;;;;;;;;;;20.68;35.60;102813.75;5070121;28;20297;-77
2022/03/21 03:12:21;;;;;;;;;;;;;;;20.69;35.37;102807.19;5036773;28;20348;-78
2022/03/21 03:14:46;;;;;;;;;;;;;;;20.69;35.23;102814.63;5054602;28;19980;-78
2022/03/21 03:17:11;;;;;;;;;;;;;;;20.68;35.38;102819.25;5069847;28;19974;-78
2022/03/21 03:19:36;;;;;;;;;;;;;;;20.67;35.45;102808.53;5054814;28;19968;-78
2022/03/21 03:22:02;;;;;;;;;;;;;;;20.66;35.35;102806.88;5069552;28;20322;-78
2022/03/21 03:24:27;;;;;;;;;;;;;;;20.66;35.34;102820.59;5054246;28;20373;-78
2022/03/21 03:26:53;;;;;;;;;;;;;;;20.65;35.47;102819.78;5053280;28;19928;-78
2022/03/21 03:29:18;;;;;;;;;;;;;;;20.64;35.36;102809.91;5054639;28;20341;-77
2022/03/21 03:31:43;;;;;;;;;;;;;;;20.63;35.26;102816.47;5036270;28;19968;-78
2022/03/21 03:34:09;;;;;;;;;;;;;;;20.62;35.35;102812.06;5069730;28;20017;-78
2022/03/21 03:36:35;;;;;;;;;;;;;;;20.61;35.45;102809.56;5053717;28;19986;-78
2022/03/21 03:39:01;;;;;;;;;;;;;;;20.61;35.30;102815.88;5036175;28;19954;-78
2022/03/21 03:41:27;;;;;;;;;;;;;;;20.62;35.43;102819.47;5036274;28;19917;-78
2022/03/21 03:43:52;;;;;;;;;;;;;;;20.59;35.28;102812.59;5053948;28;19923;-78
2022/03/21 03:46:18;;;;;;;;;;;;;;;20.60;35.32;102816.16;5070390;28;19934;-78
2022/03/21 03:48:44;;;;;;;;;;;;;;;20.59;35.27;102818.09;5054427;28;19939;-78
2022/03/21 03:51:10;;;;;;;;;;;;;;;20.59;35.24;102812.59;5036031;28;19954;-78
2022/03/21 03:53:35;;;;;;;;;;;;;;;20.58;35.42;102819.16;5054411;28;19924;-78
2022/03/21 03:56:00;;;;;;;;;;;;;;;20.57;35.39;102817.50;5053659;28;20028;-78
2022/03/21 03:58:25;;;;;;;;;;;;;;;20.57;35.29;102820.25;5036337;28;19921;-78
2022/03/21 04:00:51;;;;;;;;;;;;;;;20.56;35.54;102820.50;5054176;28;20001;-78
2022/03/21 04:06:01;;;;;;;;;;;;;;;20.55;35.22;102819.69;5054164;28;19976;-78
2022/03/21 04:08:26;;;;;;;;;;;;;;;20.53;35.23;102824.56;5053997;28;19929;-78
2022/03/21 04:10:51;;;;;;;;;;;;;;;20.53;35.30;102825.38;5069229;28;19989;-78
2022/03/21 04:13:17;;;;;;;;;;;;;;;20.52;35.27;102828.41;5054048;28;19978;-78
2022/03/21 04:15:42;;;;;;;;;;;;;;;20.52;35.43;102825.66;5060509;28;19943;-78
2022/03/21 04:18:07;;;;;;;;;;;;;;;20.51;35.35;102824.00;5042052;28;19963;-78
2022/03/21 04:20:36;;;;;;;;;;;;;;;20.50;35.37;102825.09;5076051;28;19931;-78
2022/03/21 04:23:01;;;;;;;;;;;;;;;20.49;35.21;102831.69;5060299;28;19963;-78
2022/03/21 04:25:27;;;;;;;;;;;;;;;20.48;35.33;102830.00;5060053;28;19921;-78
2022/03/21 04:27:53;;;;;;;;;;;;;;;20.48;35.48;102830.81;5060725;28;19930;-78
2022/03/21 04:30:18;;;;;;;;;;;;;;;20.47;35.50;102826.44;5042293;28;19935;-78
2022/03/21 04:32:44;;;;;;;;;;;;;;;20.47;35.29;102831.09;5075823;28;19916;-78
2022/03/21 04:35:10;;;;;;;;;;;;;;;20.46;35.33;102844.00;5060179;28;20375;-77
2022/03/21 04:37:35;;;;;;;;;;;;;;;20.45;35.27;102839.59;5060149;28;19930;-78
2022/03/21 04:40:00;;;;;;;;;;;;;;;20.45;35.04;102839.59;5060214;28;19921;-78
2022/03/21 04:42:26;;;;;;;;;;;;;;;20.45;35.39;102836.03;5075322;28;19953;-78
2022/03/21 04:44:51;;;;;;;;;;;;;;;20.43;35.32;102832.69;5059797;28;19975;-78
2022/03/21 04:47:17;;;;;;;;;;;;;;;20.43;35.31;102839.00;5042057;28;19935;-77
2022/03/21 04:49:42;;;;;;;;;;;;;;;20.42;35.51;102839.28;5060591;28;19943;-78
2022/03/21 04:52:08;;;;;;;;;;;;;;;20.41;35.34;102835.72;5075575;28;20006;-78
2022/03/21 04:54:33;;;;;;;;;;;;;;;20.41;35.39;102843.09;5059805;28;19921;-78
2022/03/21 04:56:58;;;;;;;;;;;;;;;20.40;35.27;102839.53;5076368;28;19921;-78
2022/03/21 04:59:23;;;;;;;;;;;;;;;20.40;35.74;102835.97;5058789;28;19936;-78
2022/03/21 05:01:49;;;;;;;;;;;;;;;20.40;35.21;102838.72;5058658;28;19963;-77
2022/03/21 05:04:14;;;;;;;;;;;;;;;20.39;35.09;102839.81;5060001;28;20438;-78
2022/03/21 05:06:39;;;;;;;;;;;;;;;20.37;35.20;102840.06;5060079;28;19995;-78
2022/03/21 05:09:05;;;;;;;;;;;;;;;20.38;35.33;102846.38;5060103;28;20043;-78
2022/03/21 05:11:30;;;;;;;;;;;;;;;20.37;35.22;102840.06;5059965;28;20405;-78
2022/03/21 05:13:56;;;;;;;;;;;;;;;20.36;35.25;102834.81;5075620;28;19920;-78
2022/03/21 05:16:21;;;;;;;;;;;;;;;20.36;35.38;102837.56;5060173;28;19989;-78
2022/03/21 05:18:47;;;;;;;;;;;;;;;20.35;35.41;102842.22;5059202;28;20483;-78
2022/03/21 05:21:12;;;;;;;;;;;;;;;20.34;35.12;102842.50;5058516;28;20435;-78
2022/03/21 05:31:49;;;;;;;;;;;;;;;20.31;35.31;102852.91;5056794;28;19928;-78
2022/03/21 05:36:59;;;;;;;;;;;;;;;20.29;35.24;102849.59;5057010;28;20331;-78
2022/03/21 05:39:24;;;;;;;;;;;;;;;20.28;35.53;102847.91;5055309;28;20365;-78
2022/03/21 05:41:52;;;;;;;;;;;;;;;20.28;35.46;102847.09;5055976;28;19944;-78
2022/03/21 05:44:18;;;;;;;;;;;;;;;20.28;35.25;102847.91;5039250;28;19925;-78
2022/03/21 05:46:43;;;;;;;;;;;;;;;20.27;35.39;102854.50;5038590;28;19950;-78
2022/03/21 05:49:08;;;;;;;;;;;;;;;20.27;35.31;102851.75;5071595;28;19943;-78
2022/03/21 05:51:35;;;;;;;;;;;;;;;20.26;35.33;102858.34;5038465;28;19951;-78
2022/03/21 05:54:01;;;;;;;;;;;;;;;20.26;35.58;102854.72;5038869;28;19943;-78
2022/03/21 05:56:27;;;;;;;;;;;;;;;20.25;35.59;102861.31;5056044;28;19939;-78
2022/03/21 05:58:53;;;;;;;;;;;;;;;20.24;35.36;102862.41;5055793;28;19936;-78
2022/03/21 06:01:22;;;;;;;;;;;;;;;20.23;35.34;102861.56;5055600;28;19949;-78
2022/03/21 06:03:48;;;;;;;;;;;;;;;20.23;35.27;102868.97;5037957;28;19942;-78
2022/03/21 06:06:14;;;;;;;;;;;;;;;20.21;35.28;102863.75;5038260;28;19942;-78
2022/03/21 06:08:39;;;;;;;;;;;;;;;20.22;35.34;102861.84;5071726;28;19931;-78
2022/03/21 06:11:04;;;;;;;;;;;;;;;20.21;35.23;102866.50;5056998;28;19939;-77
2022/03/21 06:13:31;;;;;;;;;;;;;;;20.21;35.35;102874.75;5071302;28;19978;-79
2022/03/21 06:16:00;;;;;;;;;;;;;;;20.21;35.56;102879.38;5055784;28;19993;-78
2022/03/21 06:18:27;;;;;;;;;;;;;;;20.19;35.40;102882.38;5055502;28;19964;-78
2022/03/21 06:20:52;;;;;;;;;;;;;;;20.18;35.32;102882.63;5071590;28;19936;-78
2022/03/21 06:23:17;;;;;;;;;;;;;;;20.18;35.22;102888.13;5055886;28;20044;-78
2022/03/21 06:25:42;;;;;;;;;;;;;;;20.17;35.26;102886.47;5070967;28;19931;-78
2022/03/21 06:28:08;;;;;;;;;;;;;;;20.17;35.42;102889.22;5055400;28;20011;-78
2022/03/21 06:30:33;;;;;;;;;;;;;;;20.15;35.51;102888.63;5055807;28;19963;-78
2022/03/21 06:32:58;;;;;;;;;;;;;;;20.15;35.33;102891.38;5055495;28;19921;-78
2022/03/21 06:35:24;;;;;;;;;;;;;;;20.14;35.31;102898.78;5055599;28;19916;-78
2022/03/21 06:37:50;;;;;;;;;;;;;;;20.14;35.45;102896.03;5069633;28;19944;-78
2022/03/21 06:40:15;;;;;;;;;;;;;;;20.14;35.24;102889.75;5055068;28;20033;-78
2022/03/21 06:42:41;;;;;;;;;;;;;;;20.13;35.33;102897.13;5037547;28;19972;-77
2022/03/21 06:45:06;;;;;;;;;;;;;;;20.12;35.21;102895.47;5055235;28;20338;-78
2022/03/21 06:47:31;;;;;;;;;;;;;;;20.12;35.29;102894.66;5055685;28;19931;-78
2022/03/21 06:49:56;;;;;;;;;;;;;;;20.11;35.31;102899.31;5055009;28;20437;-78
2022/03/21 06:52:22;;;;;;;;;;;;;;;20.10;35.23;102895.72;5054928;28;20439;-78
2022/03/21 06:54:48;;;;;;;;;;;;;;;20.10;35.41;102898.47;5055320;28;19981;-78
2022/03/21 06:57:14;;;;;;;;;;;;;;;20.10;35.31;102898.47;5037175;28;19943;-78
2022/03/21 06:59:39;;;;;;;;;;;;;;;20.10;35.23;102903.13;5069965;28;19957;-78
2022/03/21 07:02:05;;;;;;;;;;;;;;;20.09;35.58;102905.03;5036918;28;19943;-79
2022/03/21 07:04:30;;;;;;;;;;;;;;;20.09;35.26;102906.97;5054740;28;19935;-78
2022/03/21 07:06:57;;;;;;;;;;;;;;;20.10;35.49;102905.84;5054696;28;20076;-78
2022/03/21 07:09:24;;;;;;;;;;;;;;;20.10;35.41;102909.44;5055027;28;19927;-78
2022/03/21 07:11:49;;;;;;;;;;;;;;;20.10;35.49;102908.59;5036469;28;20005;-79
2022/03/21 07:14:15;;;;;;;;;;;;;;;20.12;35.40;102911.94;5036680;28;19947;-79
2022/03/21 07:16:40;;;;;;;;;;;;;;;20.12;35.21;102916.59;5036512;28;19956;-80
2022/03/21 07:19:06;;;;;;;;;;;;;;;20.12;35.13;102917.41;5036268;28;20016;-79
2022/03/21 07:21:31;;;;;;;;;;;;;;;20.11;35.46;102918.50;5053400;28;19999;-80
2022/03/21 07:23:57;;;;;;;;;;;;;;;20.13;35.33;102921.81;5036074;28;20016;-80
2022/03/21 07:26:22;;;;;;;;;;;;;;;20.13;35.65;102919.06;5036603;28;19938;-81
2022/03/21 07:28:47;;;;;;;;;;;;;;;20.13;35.57;102921.81;5054520;28;19925;-79
2022/03/21 07:31:13;;;;;;;;;;;;;;;20.13;35.71;102919.06;5052669;28;20397;-77
2022/03/21 07:33:39;;;;;;;;;;;;;;;20.13;35.73;102921.81;5069472;28;20016;-80
2022/03/21 07:36:05;;;;;;;;;;;;;;;20.13;35.65;102920.97;5054224;28;19916;-79
2022/03/21 07:38:30;;;;;;;;;;;;;;;20.13;35.64;102924.56;5054724;28;19986;-79
2022/03/21 07:40:56;;;;;;;;;;;;;;;20.13;35.59;102926.47;5054031;28;19917;-78
2022/03/21 07:43:22;;;;;;;;;;;;;;;20.12;35.78;102928.41;5036293;28;19997;-78
2022/03/21 07:48:31;;;;;;;;;;;;;;;20.10;35.70;102934.13;5067578;28;19950;-77
2022/03/21 07:50:56;;;;;;;;;;;;;;;20.11;35.93;102932.22;5070257;28;19949;-76
2022/03/21 07:53:21;;;;;;;;;;;;;;;20.10;35.64;102934.13;5069473;28;19921;-77
2022/03/21 07:55:47;;;;;;;;;;;;;;;20.10;35.78;102927.81;5053906;28;19949;-76
2022/03/21 07:58:12;;;;;;;;;;;;;;;20.10;35.71;102934.13;5069724;28;19928;-76
2022/03/21 08:00:38;;;;;;;;;;;;;;;20.10;35.74;102938.78;5053725;28;19921;-78
2022/03/21 08:03:03;;;;;;;;;;;;;;;20.10;35.65;102934.13;5054129;28;19942;-76
2022/03/21 08:05:29;;;;;;;;;;;;;;;20.09;36.08;102932.47;5035717;28;20027;-76
2022/03/21 08:07:54;;;;;;;;;;;;;;;20.10;35.99;102936.88;5053684;28;19970;-76
2022/03/21 08:10:20;;;;;;;;;;;;;;;20.10;35.84;102936.88;5054304;28;19928;-76
2022/03/21 08:12:47;;;;;;;;;;;;;;;20.10;35.83;102936.88;5069747;28;20314;-77
2022/03/21 08:15:12;;;;;;;;;;;;;;;20.10;35.93;102938.78;5035728;28;19950;-76
2022/03/21 08:17:51;;;;;;;;;;;;;;;20.10;35.99;102933.31;5035875;28;19961;-76
2022/03/21 08:20:20;;;;;;;;;;;;;;;20.10;35.87;102936.03;5035834;28;19921;-76
2022/03/21 08:22:47;;;;;;;;;;;;;;;20.10;35.67;102934.13;5037826;28;20315;-77
2022/03/21 08:25:13;;;;;;;;;;;;;;;20.10;35.67;102941.53;5069410;28;19928;-76
2022/03/21 08:27:38;;;;;;;;;;;;;;;20.10;35.87;102938.78;5054236;28;19947;-76
2022/03/21 08:30:04;;;;;;;;;;;;;;;20.09;35.80;102940.69;5068939;28;20287;-76
2022/03/21 08:32:29;;;;;;;;;;;;;;;20.10;35.92;102938.78;5036044;28;20399;-76
2022/03/21 08:34:54;;;;;;;;;;;;;;;20.10;35.78;102930.56;5036230;28;19943;-76
2022/03/21 08:37:21;;;;;;;;;;;;;;;20.10;35.84;102933.31;5053692;28;20011;-76
2022/03/21 08:39:46;;;;;;;;;;;;;;;20.10;36.03;102936.03;5035615;28;19947;-76
2022/03/21 08:42:12;;;;;;;;;;;;;;;20.10;35.93;102933.31;5052799;28;19928;-76
2022/03/21 08:44:39;;;;;;;;;;;;;;;20.09;35.87;102935.22;5052078;28;20023;-76
2022/03/21 08:47:05;;;;;;;;;;;;;;;20.10;35.83;102930.56;5053489;28;19920;-76
2022/03/21 08:49:33;;;;;;;;;;;;;;;20.10;35.96;102927.81;5069098;28;20428;-76
2022/03/21 08:51:59;;;;;;;;;;;;;;;20.10;35.86;102930.56;5053068;28;19928;-76
2022/03/21 08:54:24;;;;;;;;;;;;;;;20.11;35.80;102934.97;5053251;28;19921;-75
2022/03/21 08:56:50;;;;;;;;;;;;;;;20.11;35.93;102937.72;5053287;28;20061;-76
2022/03/21 08:59:15;;;;;;;;;;;;;;;20.09;35.79;102926.97;5053209;28;20330;-76
2022/03/21 09:01:40;;;;;;;;;;;;;;;20.10;36.01;102930.56;5056205;28;19921;-75
2022/03/21 09:04:05;;;;;;;;;;;;;;;20.10;35.85;102934.13;5057174;28;19917;-76
2022/03/21 09:06:31;;;;;;;;;;;;;;;20.10;35.86;102934.13;5072455;28;20391;-75
2022/03/21 09:08:57;;;;;;;;;;;;;;;20.11;35.87;102934.97;5056659;28;19950;-75
2022/03/21 09:11:22;;;;;;;;;;;;;;;20.10;35.87;102933.31;5056760;28;19990;-76
2022/03/21 09:13:48;;;;;;;;;;;;;;;20.10;35.90;102930.56;5056602;28;19943;-77
2022/03/21 09:16:14;;;;;;;;;;;;;;;20.10;35.94;102936.03;5038845;28;19937;-75
2022/03/21 09:18:42;;;;;;;;;;;;;;;20.11;35.92;102943.22;5056300;28;20041;-76
2022/03/21 09:21:08;;;;;;;;;;;;;;;20.10;35.99;102938.78;5038861;28;20340;-75
2022/03/21 09:23:33;;;;;;;;;;;;;;;20.11;35.92;102940.47;5056367;28;19978;-76
2022/03/21 09:26:03;;;;;;;;;;;;;;;20.10;35.99;102931.38;5039242;28;19950;-76
2022/03/21 09:28:29;;;;;;;;;;;;;;;20.10;36.04;102934.13;5038582;28;20001;-76
2022/03/21 09:30:54;;;;;;;;;;;;;;;20.11;35.90;102929.50;5056399;28;19935;-76
2022/03/21 09:33:19;;;;;;;;;;;;;;;20.11;36.12;102924.00;5071844;28;19953;-76
2022/03/21 09:35:44;;;;;;;;;;;;;;;20.11;36.12;102926.75;5072003;28;20310;-77
2022/03/21 09:38:10;;;;;;;;;;;;;;;20.10;36.29;102931.38;5056282;28;19921;-75
2022/03/21 09:40:36;;;;;;;;;;;;;;;20.11;36.13;102924.00;5056310;28;19927;-75
2022/03/21 09:43:01;;;;;;;;;;;;;;;20.11;35.98;102924.00;5056546;28;19942;-76
2022/03/21 09:45:27;;;;;;;;;;;;;;;20.11;36.17;102918.50;5038789;28;19921;-76
2022/03/21 09:50:39;;;;;;;;;;;;;;;20.12;36.06;102913.84;5056761;28;19976;-76
2022/03/21 09:53:05;;;;;;;;;;;;;;;20.10;36.10;102917.66;5070963;28;20469;-76
2022/03/21 09:55:30;;;;;;;;;;;;;;;20.11;36.15;102913.03;5056531;28;19921;-75
2022/03/21 09:57:55;;;;;;;;;;;;;;;20.10;36.10;102908.59;5056064;28;19934;-76
2022/03/21 10:00:21;;;;;;;;;;;;;;;20.11;36.07;102907.53;5054690;28;19968;-75
2022/03/21 10:02:47;;;;;;;;;;;;;;;20.12;36.11;102909.19;5054576;28;20287;-78
2022/03/21 10:05:31;;;;;;;;;;;;;;;20.12;36.13;102908.38;5071434;28;19946;-76
2022/03/21 10:08:12;;;;;;;;;;;;;;;20.12;36.38;102905.63;5055858;28;19916;-76
2022/03/21 10:10:38;;;;;;;;;;;;;;;20.12;36.26;102902.88;5071873;28;19921;-75
2022/03/21 10:13:03;;;;;;;;;;;;;;;20.11;36.32;102904.78;5037393;28;20356;-75
2022/03/21 10:15:29;;;;;;;;;;;;;;;20.12;36.34;102906.44;5055290;28;20414;-76
2022/03/21 10:18:05;;;;;;;;;;;;;;;20.12;36.31;102898.22;5037587;28;19999;-76
2022/03/21 10:20:33;;;;;;;;;;;;;;;20.12;36.23;102897.38;5055892;28;19965;-75
2022/03/21 10:23:13;;;;;;;;;;;;;;;20.13;36.43;102897.13;5054949;28;19920;-76
2022/03/21 10:25:39;;;;;;;;;;;;;;;20.13;36.38;102894.38;5055792;28;20101;-76
2022/03/21 10:28:04;;;;;;;;;;;;;;;20.13;36.27;102894.38;5037682;28;20371;-76
2022/03/21 10:30:31;;;;;;;;;;;;;;;20.13;36.15;102897.13;5070857;28;19921;-75
2022/03/21 10:32:57;;;;;;;;;;;;;;;20.14;36.37;102897.97;5054980;28;19953;-75
2022/03/21 10:35:27;;;;;;;;;;;;;;;20.15;36.33;102900.44;5037416;28;20348;-76
2022/03/21 10:38:00;;;;;;;;;;;;;;;20.15;36.23;102894.13;5037186;28;19959;-77
2022/03/21 10:40:27;;;;;;;;;;;;;;;20.14;36.29;102893.31;5055195;28;20004;-77
2022/03/21 10:43:04;;;;;;;;;;;;;;;20.15;36.27;102897.69;5054911;28;19917;-77
2022/03/21 10:45:38;;;;;;;;;;;;;;;20.14;36.44;102887.00;5054939;28;19917;-77
2022/03/21 10:48:04;;;;;;;;;;;;;;;20.15;36.39;102897.69;5055474;28;19916;-77
2022/03/21 10:50:30;;;;;;;;;;;;;;;20.15;36.34;102892.22;5039111;28;19931;-76
2022/03/21 10:53:09;;;;;;;;;;;;;;;20.15;36.33;102892.22;5055428;28;20024;-77
2022/03/21 10:55:35;;;;;;;;;;;;;;;20.16;36.46;102890.28;5054938;28;19927;-76
2022/03/21 10:58:00;;;;;;;;;;;;;;;20.16;36.50;102884.81;5070042;28;19957;-77
2022/03/21 11:00:29;;;;;;;;;;;;;;;20.17;36.46;102883.72;5054928;28;19925;-77
2022/03/21 11:03:20;;;;;;;;;;;;;;;20.17;36.41;102883.72;5036833;28;20023;-77
2022/03/21 11:05:46;;;;;;;;;;;;;;;20.17;36.49;102887.31;5033796;28;19917;-78
2022/03/21 11:08:15;;;;;;;;;;;;;;;20.17;36.43;102883.72;5054474;28;19949;-77
2022/03/21 11:10:40;;;;;;;;;;;;;;;20.18;36.32;102877.97;5054729;28;19927;-77
2022/03/21 11:13:06;;;;;;;;;;;;;;;20.18;36.52;102867.00;5037389;28;19962;-78
2022/03/21 11:15:33;;;;;;;;;;;;;;;20.17;36.41;102865.34;5054639;28;20394;-76
2022/03/21 11:17:58;;;;;;;;;;;;;;;20.18;36.66;102868.91;5054319;28;20039;-77
2022/03/21 11:20:24;;;;;;;;;;;;;;;20.19;36.59;102871.41;5054941;28;20382;-76
2022/03/21 11:22:49;;;;;;;;;;;;;;;20.19;36.67;102863.19;5070066;28;19936;-76
2022/03/21 11:25:18;;;;;;;;;;;;;;;20.19;36.52;102863.19;5054860;28;20387;-77
2022/03/21 11:27:46;;;;;;;;;;;;;;;20.20;36.58;102870.31;5054875;28;19931;-76
2022/03/21 11:30:22;;;;;;;;;;;;;;;20.19;36.67;102857.69;5036364;28;20369;-78
2022/03/21 11:32:47;;;;;;;;;;;;;;;20.21;36.79;102862.91;5055351;28;19968;-77
2022/03/21 11:35:13;;;;;;;;;;;;;;;20.20;36.61;102848.38;5036466;28;20384;-78
2022/03/21 11:37:40;;;;;;;;;;;;;;;20.20;36.73;102856.59;5055191;28;19947;-80
2022/03/21 11:40:24;;;;;;;;;;;;;;;20.21;36.60;102851.94;5054310;28;19937;-76
2022/03/21 11:42:50;;;;;;;;;;;;;;;20.21;36.58;102860.16;5054095;28;19939;-78
2022/03/21 11:45:25;;;;;;;;;;;;;;;20.22;36.73;102850.88;5054243;28;19939;-77
2022/03/21 11:48:11;;;;;;;;;;;;;;;20.22;36.70;102853.59;5036187;28;20430;-77
2022/03/21 11:50:36;;;;;;;;;;;;;;;20.21;36.86;102852.78;5054251;28;20268;-77
2022/03/21 11:53:11;;;;;;;;;;;;;;;20.21;36.67;102858.28;5036061;28;19921;-78
2022/03/21 11:55:41;;;;;;;;;;;;;;;20.23;36.61;102855.25;5054205;28;19930;-77
2022/03/21 11:58:21;;;;;;;;;;;;;;;20.22;36.79;102843.44;5054371;28;19946;-78
2022/03/21 12:01:04;;;;;;;;;;;;;;;20.22;36.84;102846.19;5035934;28;20301;-77
2022/03/21 12:03:29;;;;;;;;;;;;;;;20.23;36.72;102841.53;5036334;28;19946;-78
2022/03/21 12:05:54;;;;;;;;;;;;;;;20.22;36.81;102840.72;5053839;28;19921;-78
2022/03/21 12:08:29;;;;;;;;;;;;;;;20.23;36.85;102838.78;5035970;28;19921;-77
2022/03/21 12:10:55;;;;;;;;;;;;;;;20.24;36.66;102829.50;5054744;28;19924;-78
2022/03/21 12:13:20;;;;;;;;;;;;;;;20.24;36.72;102833.06;5053902;28;20281;-78
2022/03/21 12:15:54;;;;;;;;;;;;;;;20.25;36.91;102833.88;5035434;28;19990;-78
2022/03/21 12:18:39;;;;;;;;;;;;;;;20.25;36.91;102823.72;5068921;28;19996;-79
2022/03/21 12:21:11;;;;;;;;;;;;;;;20.25;36.62;102820.97;5053849;28;19955;-78
2022/03/21 12:23:36;;;;;;;;;;;;;;;20.25;36.75;102820.97;5053675;28;20429;-77
2022/03/21 12:26:03;;;;;;;;;;;;;;;20.27;36.66;102818.00;5053899;28;20008;-77
2022/03/21 12:31:23;;;;;;;;;;;;;;;20.27;36.71;102824.31;5053664;28;19991;-77
2022/03/21 12:33:48;;;;;;;;;;;;;;;20.28;36.79;102814.16;5069554;28;19927;-78
2022/03/21 12:36:29;;;;;;;;;;;;;;;20.29;36.74;102815.81;5057372;28;20004;-77
2022/03/21 12:38:54;;;;;;;;;;;;;;;20.29;37.07;102822.13;5039652;28;19933;-76
2022/03/21 12:41:21;;;;;;;;;;;;;;;20.30;36.71;102815.53;5073077;28;19995;-77
2022/03/21 12:43:49;;;;;;;;;;;;;;;20.31;36.87;102813.66;5057627;28;19946;-77
2022/03/21 12:46:18;;;;;;;;;;;;;;;20.32;37.03;102812.56;5057854;28;19970;-77
2022/03/21 12:48:53;;;;;;;;;;;;;;;20.32;36.87;102818.03;5040294;28;20279;-78
2022/03/21 12:51:29;;;;;;;;;;;;;;;20.32;36.96;102813.38;5039503;28;20011;-77
2022/03/21 12:53:56;;;;;;;;;;;;;;;20.34;37.08;102804.06;5057394;28;20012;-77
2022/03/21 12:56:23;;;;;;;;;;;;;;;20.34;37.12;102807.66;5039476;28;19916;-76
2022/03/21 12:58:54;;;;;;;;;;;;;;;20.33;37.05;102805.97;5039158;28;20066;-77